EGFF/CWL METAR and TAF weather

Enter ICAO airport designator
Station Type Date Time Source
EGFF METAR 2022/01/27 23:20 UTC NOAA

EGFF 272320Z AUTO 33006KT 9999 NCD 04/03 Q1035


Station Type Date Time Source
EGFF Decoded METAR 2022/01/27 23:20 UTC NOAA

Cardiff-Wales Airport, United Kingdom (EGFF) 51-24N 003-21W 0M
Jan 27, 2022 - 06:20 PM EST / 2022.01.27 2320 UTC
Wind: from the NNW (330 degrees) at 7 MPH (6 KT):0
Visibility: greater than 7 mile(s):0
Temperature: 39 F (4 C)
Dew Point: 37 F (3 C)
Relative Humidity: 93%
Pressure (altimeter): 30.56 in. Hg (1035 hPa)
ob: EGFF 272320Z AUTO 33006KT 9999 NCD 04/03 Q1035
cycle: 23

Station Type Date Time Source
EGFF TAF 2022/01/27 18:06 UTC NOAA

TAF EGFF 271657Z 2718/2818 31010KT 9999 FEW030
BECMG 2721/2724 25005KT PROB30 2721/2805 6000 PROB40 2805/2809 4000 BR
BECMG 2815/2818 24015KT BKN010
TEMPO 2815/2818 6000 -RADZ BKN008

Example: see airport list